createdAt,value
2022-11-20T00:01:11.185Z,15.32
2022-11-20T00:03:38.472Z,20.13
2022-11-20T00:06:08.303Z,16.85
2022-11-20T00:08:35.643Z,16.15
2022-11-20T00:11:29.780Z,17.60
2022-11-20T00:16:32.625Z,18.10
2022-11-20T00:18:59.879Z,19.30
2022-11-20T00:21:29.749Z,20.08
2022-11-20T00:23:58.372Z,24.30
2022-11-20T00:26:27.835Z,26.48
2022-11-20T00:28:57.874Z,20.80
2022-11-20T00:31:25.710Z,19.10
2022-11-20T00:33:53.491Z,19.13
2022-11-20T00:36:26.015Z,20.33
2022-11-20T00:38:54.747Z,12.15
2022-11-20T00:41:23.134Z,12.35
2022-11-20T00:43:50.796Z,16.42
2022-11-20T00:46:24.926Z,16.73
2022-11-20T00:48:52.467Z,18.15
2022-11-20T00:51:22.593Z,16.77
2022-11-20T00:53:50.666Z,18.92
2022-11-20T00:56:20.410Z,17.77
2022-11-20T00:58:49.307Z,19.20
2022-11-20T01:01:22.907Z,22.52
2022-11-20T01:06:26.026Z,16.23
2022-11-20T01:08:55.975Z,16.17
2022-11-20T01:11:26.354Z,17.02
2022-11-20T01:13:54.869Z,15.75
2022-11-20T01:16:37.407Z,15.77
2022-11-20T01:19:07.262Z,16.85
2022-11-20T01:21:36.870Z,14.57
2022-11-20T01:24:05.803Z,17.50
2022-11-20T01:26:36.099Z,18.60
2022-11-20T01:29:04.753Z,17.90
2022-11-20T01:31:38.367Z,15.90
2022-11-20T01:34:15.585Z,12.98
2022-11-20T01:36:44.184Z,12.20
2022-11-20T01:39:14.823Z,11.43
2022-11-20T01:42:05.722Z,16.92
2022-11-20T01:44:55.923Z,8.45
2022-11-20T01:47:45.009Z,12.13
2022-11-20T01:50:16.690Z,11.90
2022-11-20T01:52:52.868Z,12.23
2022-11-20T01:55:25.639Z,11.82
2022-11-20T01:57:53.265Z,12.80
2022-11-20T02:00:21.798Z,12.60
2022-11-20T02:02:56.879Z,12.73
2022-11-20T02:05:37.836Z,12.45
2022-11-20T02:08:07.107Z,10.25
2022-11-20T02:10:35.189Z,13.02
2022-11-20T02:13:21.331Z,12.13
2022-11-20T02:15:49.025Z,10.68
2022-11-20T02:18:19.801Z,14.18
2022-11-20T02:20:50.083Z,13.82
2022-11-20T02:23:55.823Z,11.57
2022-11-20T02:26:25.129Z,12.55
2022-11-20T02:28:52.418Z,11.68
2022-11-20T02:31:19.614Z,12.13
2022-11-20T02:33:46.798Z,11.70
2022-11-20T02:36:16.778Z,11.77
2022-11-20T02:38:45.025Z,13.57
2022-11-20T02:41:12.324Z,9.25
2022-11-20T02:43:39.374Z,12.32
2022-11-20T02:46:09.132Z,10.10
2022-11-20T02:48:36.970Z,10.75
2022-11-20T02:51:04.237Z,11.02
2022-11-20T02:53:31.318Z,10.32
2022-11-20T02:55:58.488Z,8.57
2022-11-20T02:58:25.735Z,9.88
2022-11-20T03:00:53.920Z,11.88
2022-11-20T03:03:21.217Z,7.53
2022-11-20T03:05:48.339Z,11.00
2022-11-20T03:08:15.652Z,13.73
2022-11-20T03:10:42.871Z,10.57
2022-11-20T03:13:10.003Z,11.00
2022-11-20T03:15:38.391Z,8.40
2022-11-20T03:18:05.826Z,10.18
2022-11-20T03:20:35.205Z,10.77
2022-11-20T03:23:03.302Z,10.50
2022-11-20T03:25:30.372Z,9.88
2022-11-20T03:27:57.635Z,10.98
2022-11-20T03:30:29.210Z,9.13
2022-11-20T03:32:57.793Z,10.35
2022-11-20T03:35:24.846Z,7.78
2022-11-20T03:37:52.055Z,8.57
2022-11-20T03:40:19.853Z,8.85
2022-11-20T03:42:46.907Z,9.43
2022-11-20T03:45:15.862Z,10.43
2022-11-20T03:47:43.434Z,13.18
2022-11-20T03:50:13.577Z,12.68
2022-11-20T03:52:40.969Z,14.65
2022-11-20T03:55:09.077Z,9.90
2022-11-20T03:57:36.184Z,9.90
2022-11-20T04:00:04.815Z,11.70
2022-11-20T04:02:32.211Z,11.02
2022-11-20T04:04:59.425Z,11.05
2022-11-20T04:07:26.555Z,11.65
2022-11-20T04:09:53.820Z,7.45
2022-11-20T04:12:20.995Z,11.18
2022-11-20T04:14:48.243Z,12.02
2022-11-20T04:17:15.262Z,8.77
2022-11-20T04:19:42.401Z,11.63
2022-11-20T04:22:10.205Z,8.77
2022-11-20T04:24:37.339Z,12.30
2022-11-20T04:27:04.571Z,12.18
2022-11-20T04:29:31.566Z,8.90
2022-11-20T04:31:58.686Z,9.38
2022-11-20T04:34:26.021Z,9.32
2022-11-20T04:36:53.088Z,8.27
2022-11-20T04:39:21.047Z,7.60
2022-11-20T04:41:48.653Z,11.27
2022-11-20T04:44:15.680Z,7.38
2022-11-20T04:46:43.956Z,7.72
2022-11-20T04:49:12.160Z,11.27
2022-11-20T04:51:39.383Z,10.10
2022-11-20T04:54:06.565Z,8.77
2022-11-20T04:56:34.204Z,9.95
2022-11-20T04:59:02.887Z,6.50
2022-11-20T05:01:30.992Z,7.53
2022-11-20T05:03:58.174Z,8.15
2022-11-20T05:06:25.566Z,7.35
2022-11-20T05:08:52.560Z,9.25
2022-11-20T05:11:22.168Z,8.77
2022-11-20T05:13:50.877Z,7.15
2022-11-20T05:16:24.324Z,7.20
2022-11-20T05:21:21.478Z,10.70
2022-11-20T05:23:48.825Z,5.13
2022-11-20T05:26:22.498Z,18.20
2022-11-20T05:28:50.317Z,24.48
2022-11-20T05:31:27.018Z,23.17
2022-11-20T05:33:55.571Z,14.68
2022-11-20T05:36:22.914Z,9.30
2022-11-20T05:38:51.236Z,10.35
2022-11-20T05:41:21.689Z,7.95
2022-11-20T05:43:50.276Z,10.55
2022-11-20T05:46:24.755Z,7.47
2022-11-20T05:48:55.561Z,5.43
2022-11-20T05:51:22.674Z,6.85
2022-11-20T05:53:49.902Z,7.88
2022-11-20T05:56:21.679Z,7.47
2022-11-20T05:58:49.948Z,6.50
2022-11-20T06:01:23.360Z,6.95
2022-11-20T06:03:52.217Z,6.18
2022-11-20T06:06:21.065Z,6.65
2022-11-20T06:08:48.920Z,8.88
2022-11-20T06:11:17.015Z,8.88
2022-11-20T06:13:44.324Z,6.72
2022-11-20T06:16:13.872Z,5.60
2022-11-20T06:18:41.102Z,5.57
2022-11-20T06:21:11.374Z,9.32
2022-11-20T06:23:38.941Z,9.45
2022-11-20T06:26:08.519Z,6.93
2022-11-20T06:28:36.342Z,21.80
2022-11-20T06:31:04.145Z,23.85
2022-11-20T06:33:31.822Z,11.88
2022-11-20T06:36:03.434Z,8.70
2022-11-20T06:38:33.284Z,5.45
2022-11-20T06:41:00.506Z,7.30
2022-11-20T06:43:29.938Z,4.82
2022-11-20T06:45:58.224Z,5.40
2022-11-20T06:48:27.341Z,6.38
2022-11-20T06:50:54.492Z,4.82
2022-11-20T06:53:22.430Z,5.35
2022-11-20T06:55:50.310Z,5.00
2022-11-20T06:58:18.244Z,4.47
2022-11-20T07:00:45.654Z,7.13
2022-11-20T07:03:13.445Z,7.88
2022-11-20T07:05:41.457Z,5.85
2022-11-20T07:08:08.936Z,4.40
2022-11-20T07:10:36.968Z,5.93
2022-11-20T07:13:08.665Z,6.90
2022-11-20T07:15:39.236Z,10.57
2022-11-20T07:18:06.421Z,9.18
2022-11-20T07:20:33.767Z,10.07
2022-11-20T07:23:01.017Z,6.95
2022-11-20T07:25:29.397Z,6.57
2022-11-20T07:28:00.466Z,4.82
2022-11-20T07:30:30.689Z,5.78
2022-11-20T07:32:58.468Z,9.90
2022-11-20T07:35:26.549Z,6.80
2022-11-20T07:37:53.694Z,8.45
2022-11-20T07:40:21.313Z,9.05
2022-11-20T07:42:56.439Z,6.30
2022-11-20T07:45:25.282Z,9.65
2022-11-20T07:47:53.131Z,7.03
2022-11-20T07:50:31.683Z,6.38
2022-11-20T07:53:04.314Z,8.20
2022-11-20T07:55:32.132Z,6.80
2022-11-20T07:57:59.754Z,12.68
2022-11-20T08:00:28.030Z,8.60
2022-11-20T08:02:55.318Z,5.78
2022-11-20T08:05:22.611Z,6.45
2022-11-20T08:07:50.093Z,10.77
2022-11-20T08:10:17.655Z,8.60
2022-11-20T08:13:05.399Z,7.05
2022-11-20T08:15:33.615Z,5.35
2022-11-20T08:18:29.490Z,4.72
2022-11-20T08:20:52.138Z,5.45
2022-11-20T08:23:21.410Z,3.97
2022-11-20T08:25:52.085Z,7.25
2022-11-20T08:28:21.784Z,6.20
2022-11-20T08:30:51.274Z,8.43
2022-11-20T08:33:19.244Z,6.53
2022-11-20T08:35:46.593Z,5.55
2022-11-20T08:38:13.911Z,5.65
2022-11-20T08:40:41.016Z,7.65
2022-11-20T08:43:08.361Z,7.53
2022-11-20T08:45:35.767Z,8.73
2022-11-20T08:48:04.675Z,7.90
2022-11-20T08:50:35.536Z,10.50
2022-11-20T08:53:06.506Z,9.40
2022-11-20T08:55:33.737Z,11.45
2022-11-20T08:58:05.459Z,9.60
2022-11-20T09:00:33.614Z,5.78
2022-11-20T09:03:02.395Z,10.10
2022-11-20T09:05:31.267Z,7.88
2022-11-20T09:07:59.496Z,8.88
2022-11-20T09:10:27.815Z,10.60
2022-11-20T09:12:56.603Z,17.42
2022-11-20T09:15:25.173Z,17.05
2022-11-20T09:17:54.221Z,13.18
2022-11-20T09:20:21.499Z,6.78
2022-11-20T09:22:48.881Z,14.95
2022-11-20T09:25:16.047Z,13.50
2022-11-20T09:27:44.954Z,11.35
2022-11-20T09:30:12.805Z,18.15
2022-11-20T09:32:40.391Z,11.20
2022-11-20T09:35:09.286Z,9.75
2022-11-20T09:37:36.750Z,8.75
2022-11-20T09:40:04.204Z,10.95
2022-11-20T09:42:49.059Z,18.63
2022-11-20T09:45:47.199Z,7.60
2022-11-20T09:48:26.425Z,25.55
2022-11-20T09:51:12.284Z,30.92
2022-11-20T09:53:57.897Z,20.05
2022-11-20T09:56:27.016Z,13.20
2022-11-20T09:58:59.115Z,15.18
2022-11-20T10:01:32.456Z,14.75
2022-11-20T10:04:19.453Z,16.02
2022-11-20T10:07:31.488Z,14.65
2022-11-20T10:09:57.970Z,19.88
2022-11-20T10:12:31.413Z,16.92
2022-11-20T10:18:08.736Z,8.88
2022-11-20T10:20:51.212Z,11.45
2022-11-20T10:23:49.175Z,7.65
2022-11-20T10:26:24.258Z,14.68
2022-11-20T10:29:10.129Z,32.25
2022-11-20T10:31:52.058Z,27.15
2022-11-20T10:34:41.148Z,18.58
2022-11-20T10:37:17.769Z,7.75
2022-11-20T10:40:17.637Z,8.85
2022-11-20T10:43:01.987Z,5.90
2022-11-20T10:45:38.767Z,9.07
2022-11-20T10:48:09.418Z,10.65
2022-11-20T10:50:46.069Z,14.35
2022-11-20T10:53:59.391Z,7.00
2022-11-20T10:57:08.132Z,6.63
2022-11-20T11:00:06.536Z,8.70
2022-11-20T11:02:44.756Z,6.03
2022-11-20T11:05:43.961Z,9.75
2022-11-20T11:08:19.191Z,8.77
2022-11-20T11:10:52.533Z,7.70
2022-11-20T11:15:49.037Z,12.98
2022-11-20T11:18:34.689Z,8.75
2022-11-20T11:21:04.320Z,25.08
2022-11-20T11:23:41.503Z,24.45
2022-11-20T11:26:22.647Z,9.90
2022-11-20T11:29:00.031Z,12.02
2022-11-20T11:31:36.169Z,21.90
2022-11-20T11:34:08.255Z,21.60
2022-11-20T11:36:37.223Z,81.95
2022-11-20T11:39:08.623Z,30.35
2022-11-20T11:41:37.196Z,25.25
2022-11-20T11:44:44.958Z,34.10
2022-11-20T11:47:26.433Z,26.65
2022-11-20T11:50:16.920Z,27.55
2022-11-20T11:53:00.032Z,29.55
2022-11-20T11:55:36.658Z,23.73
2022-11-20T11:58:11.324Z,34.58
2022-11-20T12:00:43.290Z,34.17
2022-11-20T12:03:17.089Z,33.58
2022-11-20T12:05:48.631Z,32.47
2022-11-20T12:08:45.153Z,28.13
2022-11-20T12:11:46.239Z,29.98
2022-11-20T12:14:44.499Z,31.42
2022-11-20T12:17:13.592Z,36.80
2022-11-20T12:19:41.397Z,26.75
2022-11-20T12:22:38.004Z,38.22
2022-11-20T12:25:08.380Z,37.80
2022-11-20T12:28:13.281Z,22.90
2022-11-20T12:31:12.506Z,32.40
2022-11-20T12:33:45.876Z,28.95
2022-11-20T12:39:01.933Z,31.65
2022-11-20T12:42:25.107Z,31.15
2022-11-20T12:45:17.760Z,29.65
2022-11-20T12:47:48.082Z,32.17
2022-11-20T12:51:13.366Z,34.42
2022-11-20T12:53:57.830Z,29.33
2022-11-20T12:56:44.219Z,28.45
2022-11-20T12:59:39.031Z,23.33
2022-11-20T13:02:33.549Z,25.55
2022-11-20T13:05:10.032Z,22.67
2022-11-20T13:07:37.887Z,20.77
2022-11-20T13:10:29.347Z,21.15
2022-11-20T13:13:15.978Z,17.67
2022-11-20T13:16:21.694Z,15.98
2022-11-20T13:18:53.116Z,17.25
2022-11-20T13:21:39.250Z,17.92
2022-11-20T13:24:27.633Z,21.60
2022-11-20T13:27:10.174Z,14.98
2022-11-20T13:29:46.053Z,17.38
2022-11-20T13:32:22.743Z,14.98
2022-11-20T13:34:59.778Z,11.45
2022-11-20T13:37:36.393Z,18.02
2022-11-20T13:40:09.839Z,17.10
2022-11-20T13:45:23.491Z,18.85
2022-11-20T13:47:52.683Z,12.40
2022-11-20T13:50:20.757Z,17.02
2022-11-20T13:52:48.248Z,22.88
2022-11-20T13:55:30.704Z,13.60
2022-11-20T13:58:19.562Z,13.85
2022-11-20T14:01:13.017Z,11.77
2022-11-20T14:04:05.071Z,12.45
2022-11-20T14:06:32.933Z,17.88
2022-11-20T14:09:00.880Z,12.52
2022-11-20T14:11:32.395Z,13.32
2022-11-20T14:14:06.966Z,18.20
2022-11-20T14:16:38.302Z,17.60
2022-11-20T14:19:22.299Z,9.75
2022-11-20T14:21:51.629Z,12.55
2022-11-20T14:24:24.629Z,13.27
2022-11-20T14:26:53.506Z,9.90
2022-11-20T14:29:27.537Z,12.55
2022-11-20T14:31:57.168Z,11.95
2022-11-20T14:34:30.414Z,18.92
2022-11-20T14:37:16.586Z,15.65
2022-11-20T14:39:52.041Z,13.02
2022-11-20T14:42:24.907Z,18.15
2022-11-20T14:44:56.731Z,19.90
2022-11-20T14:47:30.725Z,16.95
2022-11-20T14:50:00.321Z,21.15
2022-11-20T14:52:32.245Z,21.65
2022-11-20T14:55:03.425Z,27.25
2022-11-20T14:57:35.636Z,20.52
2022-11-20T15:00:09.386Z,24.25
2022-11-20T15:02:42.649Z,19.40
2022-11-20T15:07:47.315Z,19.92
2022-11-20T15:10:27.221Z,15.07
2022-11-20T15:13:07.218Z,20.08
2022-11-20T15:15:50.962Z,14.93
2022-11-20T15:18:25.461Z,27.48
2022-11-20T15:20:55.282Z,16.33
2022-11-20T15:23:22.747Z,17.02
2022-11-20T15:25:51.541Z,19.48
2022-11-20T15:28:33.746Z,23.30
2022-11-20T15:31:06.850Z,16.58
2022-11-20T15:33:36.014Z,16.48
2022-11-20T15:36:03.939Z,19.52
2022-11-20T15:38:31.431Z,14.90
2022-11-20T15:40:59.746Z,18.90
2022-11-20T15:43:27.214Z,21.80
2022-11-20T15:46:00.423Z,18.48
2022-11-20T15:48:31.216Z,20.17
2022-11-20T15:51:00.046Z,16.05
2022-11-20T15:53:27.644Z,17.80
2022-11-20T15:55:55.463Z,16.15
2022-11-20T15:58:24.998Z,22.38
2022-11-20T16:00:53.012Z,16.63
2022-11-20T16:03:22.837Z,16.60
2022-11-20T16:05:51.091Z,20.45
2022-11-20T16:08:19.323Z,16.77
2022-11-20T16:10:46.585Z,17.85
2022-11-20T16:13:45.304Z,22.35
2022-11-20T16:16:37.113Z,17.75
2022-11-20T16:19:04.982Z,21.83
2022-11-20T16:21:32.805Z,20.60
2022-11-20T16:24:06.543Z,23.98
2022-11-20T16:26:34.389Z,18.52
2022-11-20T16:29:02.569Z,22.17
2022-11-20T16:31:30.543Z,34.22
2022-11-20T16:33:59.780Z,62.38
2022-11-20T16:36:28.824Z,65.53
2022-11-20T16:38:57.819Z,75.97
2022-11-20T16:41:27.409Z,44.72
2022-11-20T16:43:59.993Z,40.33
2022-11-20T16:46:31.972Z,36.40
2022-11-20T16:49:00.808Z,36.78
2022-11-20T16:51:29.561Z,31.38
2022-11-20T16:53:57.453Z,30.60
2022-11-20T16:56:27.503Z,36.13
2022-11-20T16:58:58.569Z,37.25
2022-11-20T17:01:29.048Z,52.30
2022-11-20T17:04:07.457Z,43.65
2022-11-20T17:06:37.130Z,51.25
2022-11-20T17:09:05.414Z,40.58
2022-11-20T17:11:34.520Z,30.83
2022-11-20T17:14:08.601Z,25.23
2022-11-20T17:16:37.158Z,29.20
2022-11-20T17:19:05.887Z,25.60
2022-11-20T17:21:36.522Z,26.38
2022-11-20T17:24:06.801Z,24.65
2022-11-20T17:26:36.220Z,20.98
2022-11-20T17:29:15.831Z,16.95
2022-11-20T17:31:43.917Z,14.43
2022-11-20T17:34:13.918Z,18.80
2022-11-20T17:36:45.971Z,16.52
2022-11-20T17:39:15.420Z,15.55
2022-11-20T17:41:43.239Z,11.80
2022-11-20T17:44:14.055Z,14.73
2022-11-20T17:46:41.769Z,12.18
2022-11-20T17:49:09.396Z,11.88
2022-11-20T17:51:37.167Z,13.38
2022-11-20T17:54:07.787Z,11.60
2022-11-20T17:56:54.725Z,10.73
2022-11-20T17:59:22.560Z,10.77
2022-11-20T18:01:50.258Z,11.95
2022-11-20T18:04:18.147Z,9.63
2022-11-20T18:06:45.646Z,9.10
2022-11-20T18:09:13.602Z,12.93
2022-11-20T18:11:43.039Z,11.30
2022-11-20T18:14:27.144Z,5.03
2022-11-20T18:16:57.052Z,9.77
2022-11-20T18:19:32.006Z,9.88
2022-11-20T18:22:02.029Z,10.00
2022-11-20T18:24:29.414Z,10.70
2022-11-20T18:26:58.093Z,8.90
2022-11-20T18:29:26.971Z,8.90
2022-11-20T18:31:54.622Z,12.98
2022-11-20T18:34:22.511Z,8.10
2022-11-20T18:36:50.648Z,13.32
2022-11-20T18:39:29.999Z,12.23
2022-11-20T18:45:23.286Z,14.43
2022-11-20T18:47:50.577Z,9.45
2022-11-20T18:50:17.803Z,10.23
2022-11-20T18:52:45.615Z,12.18
2022-11-20T18:55:13.389Z,9.02
2022-11-20T18:57:41.258Z,8.07
2022-11-20T19:00:11.484Z,11.88
2022-11-20T19:02:42.747Z,8.48
2022-11-20T19:05:12.720Z,6.82
2022-11-20T19:07:40.329Z,8.10
2022-11-20T19:10:07.966Z,11.38
2022-11-20T19:12:35.428Z,11.00
2022-11-20T19:15:02.727Z,10.63
2022-11-20T19:17:29.817Z,10.32
2022-11-20T19:19:57.474Z,10.88
2022-11-20T19:22:25.056Z,11.50
2022-11-20T19:24:52.392Z,9.25
2022-11-20T19:27:19.824Z,9.07
2022-11-20T19:29:48.328Z,16.40
2022-11-20T19:32:19.610Z,15.20
2022-11-20T19:34:47.882Z,12.23
2022-11-20T19:37:15.731Z,14.43
2022-11-20T19:39:43.516Z,13.43
2022-11-20T19:42:12.417Z,12.98
2022-11-20T19:44:43.999Z,11.18
2022-11-20T19:47:14.644Z,13.20
2022-11-20T19:49:42.787Z,11.40
2022-11-20T19:52:10.368Z,15.95
2022-11-20T19:54:38.610Z,12.05
2022-11-20T19:57:06.659Z,10.57
2022-11-20T19:59:34.612Z,13.93
2022-11-20T20:02:03.789Z,16.65
2022-11-20T20:04:31.581Z,17.00
2022-11-20T20:06:59.835Z,13.35
2022-11-20T20:09:28.054Z,12.30
2022-11-20T20:11:55.299Z,10.30
2022-11-20T20:14:23.328Z,15.48
2022-11-20T20:16:50.703Z,12.50
2022-11-20T20:19:20.591Z,13.38
2022-11-20T20:21:48.393Z,15.68
2022-11-20T20:24:17.824Z,17.50
2022-11-20T20:26:45.235Z,10.55
2022-11-20T20:29:12.786Z,15.75
2022-11-20T20:31:41.657Z,11.45
2022-11-20T20:34:10.238Z,11.38
2022-11-20T20:36:38.751Z,13.38
2022-11-20T20:39:06.951Z,18.38
2022-11-20T20:41:36.509Z,18.55
2022-11-20T20:44:22.785Z,18.05
2022-11-20T20:46:53.428Z,14.25
2022-11-20T20:49:21.326Z,15.20
2022-11-20T20:51:49.210Z,11.90
2022-11-20T20:54:16.678Z,16.55
2022-11-20T20:56:44.157Z,28.67
2022-11-20T20:59:11.664Z,41.35
2022-11-20T21:01:42.160Z,33.15
2022-11-20T21:04:09.425Z,24.95
2022-11-20T21:06:37.309Z,20.30
2022-11-20T21:09:06.456Z,18.88
2022-11-20T21:11:33.905Z,21.90
2022-11-20T21:14:01.426Z,18.45
2022-11-20T21:16:41.644Z,14.00
2022-11-20T21:19:09.149Z,12.70
2022-11-20T21:21:55.407Z,11.10
2022-11-20T21:24:23.088Z,10.82
2022-11-20T21:26:53.719Z,19.08
2022-11-20T21:29:22.587Z,20.75
2022-11-20T21:31:50.646Z,19.67
2022-11-20T21:34:18.792Z,19.08
2022-11-20T21:36:46.434Z,20.60
2022-11-20T21:51:36.293Z,140.48
2022-11-20T21:54:16.392Z,144.23
2022-11-20T21:56:43.690Z,114.55
2022-11-20T21:59:14.685Z,91.80
2022-11-20T22:01:42.503Z,70.07
2022-11-20T22:04:14.645Z,59.55
2022-11-20T22:06:42.724Z,57.47
2022-11-20T22:09:10.664Z,50.33
2022-11-20T22:11:38.336Z,46.30
2022-11-20T22:14:20.908Z,30.25
2022-11-20T22:16:52.583Z,43.88
2022-11-20T22:19:21.689Z,49.42
2022-11-20T22:21:51.298Z,36.92
2022-11-20T22:24:20.214Z,50.95
2022-11-20T22:26:48.416Z,74.80
2022-11-20T22:29:18.199Z,79.38
2022-11-20T22:31:45.431Z,119.78
2022-11-20T22:34:13.487Z,115.07
2022-11-20T22:36:41.927Z,112.53
2022-11-20T22:39:09.354Z,111.15
2022-11-20T22:41:36.604Z,100.32
2022-11-20T22:44:08.907Z,91.43
2022-11-20T22:46:37.333Z,81.13
2022-11-20T22:49:07.192Z,74.65
2022-11-20T22:51:37.500Z,79.22
2022-11-20T22:54:04.822Z,57.45
2022-11-20T22:56:32.496Z,54.25
2022-11-20T22:59:00.269Z,55.75
2022-11-20T23:01:29.726Z,49.80
2022-11-20T23:04:01.929Z,50.15
2022-11-20T23:06:30.073Z,39.88
2022-11-20T23:08:57.932Z,38.28
2022-11-20T23:11:27.900Z,44.17
2022-11-20T23:14:00.134Z,42.85
2022-11-20T23:16:29.431Z,35.38
2022-11-20T23:19:08.505Z,33.20
2022-11-20T23:21:37.903Z,32.90
2022-11-20T23:24:06.239Z,31.45
2022-11-20T23:26:36.092Z,26.13
2022-11-20T23:29:04.353Z,27.70
2022-11-20T23:31:33.439Z,20.02
2022-11-20T23:34:00.796Z,26.30
2022-11-20T23:36:28.667Z,25.70
2022-11-20T23:38:55.965Z,22.80
2022-11-20T23:41:23.511Z,15.38
2022-11-20T23:43:50.805Z,22.92
2022-11-20T23:46:18.503Z,24.35
2022-11-20T23:48:45.815Z,20.80
2022-11-20T23:51:13.636Z,19.40
2022-11-20T23:53:40.924Z,13.23
2022-11-20T23:56:08.178Z,19.52
2022-11-20T23:58:39.108Z,25.90
